Time;durP1;ratioP1;P1;durP2;ratioP2;P2;SDS_P1;SDS_P2;PMS_P1;PMS_P2;Temp;Humidity;BMP_temperature;BMP_pressure;BME280_temperature;BME280_humidity;BME280_pressure;Samples;Min_cycle;Max_cycle;Signal;HPM_P1;HPM_P2
2023/06/01 00:02:11;;;;;;;17.90;10.48;;;10.40;99.90;;;;;;6282552;22;19996;-90
2023/06/01 00:04:40;;;;;;;18.83;10.02;;;10.30;99.90;;;;;;6282367;22;20003;-89
2023/06/01 00:07:07;;;;;;;25.00;11.57;;;10.30;99.90;;;;;;6308533;22;20026;-89
2023/06/01 00:09:32;;;;;;;22.10;11.18;;;10.30;99.90;;;;;;6282127;22;20033;-89
2023/06/01 00:11:58;;;;;;;23.02;12.35;;;10.20;99.90;;;;;;6282149;22;20431;-90
2023/06/01 00:14:24;;;;;;;16.67;10.68;;;10.30;99.90;;;;;;6281680;22;20066;-89
2023/06/01 00:16:51;;;;;;;21.80;11.63;;;10.30;99.90;;;;;;6281461;22;20000;-90
2023/06/01 00:19:17;;;;;;;21.52;10.90;;;10.30;99.90;;;;;;6280886;22;20015;-89
2023/06/01 00:21:43;;;;;;;24.45;11.43;;;10.20;99.90;;;;;;6282011;22;20082;-88
2023/06/01 00:24:09;;;;;;;18.75;9.85;;;10.20;99.90;;;;;;6281639;22;20021;-89
2023/06/01 00:26:35;;;;;;;15.93;9.18;;;10.20;99.90;;;;;;6281836;22;20094;-90
2023/06/01 00:29:00;;;;;;;13.48;8.43;;;10.20;99.90;;;;;;6281554;22;20011;-90
2023/06/01 00:31:27;;;;;;;16.98;9.40;;;10.20;99.90;;;;;;6280244;22;20014;-89
2023/06/01 00:33:52;;;;;;;16.40;8.68;;;10.20;99.90;;;;;;6279671;22;20007;-87
2023/06/01 00:36:18;;;;;;;16.95;8.85;;;10.10;99.90;;;;;;6280164;22;20037;-89
2023/06/01 00:38:44;;;;;;;17.02;9.55;;;10.10;99.90;;;;;;6283364;22;20026;-89
2023/06/01 00:41:10;;;;;;;16.88;8.32;;;10.10;99.90;;;;;;6282781;22;20327;-89
2023/06/01 00:43:36;;;;;;;15.25;9.02;;;10.10;99.90;;;;;;6281614;22;20031;-90
2023/06/01 00:46:01;;;;;;;12.32;8.20;;;10.00;99.90;;;;;;6280115;22;20054;-89
2023/06/01 00:48:27;;;;;;;14.85;7.70;;;10.00;99.90;;;;;;6280245;22;20014;-88
2023/06/01 00:50:53;;;;;;;14.07;8.07;;;10.00;99.90;;;;;;6279094;22;20086;-88
2023/06/01 00:53:20;;;;;;;16.60;7.97;;;10.00;99.90;;;;;;6278842;22;20015;-88
2023/06/01 00:55:46;;;;;;;13.40;7.55;;;10.00;99.90;;;;;;6279420;22;20098;-89
2023/06/01 00:58:16;;;;;;;18.55;8.40;;;10.00;99.90;;;;;;6279081;22;20006;-89
2023/06/01 01:00:41;;;;;;;13.73;7.70;;;10.00;99.90;;;;;;6278847;22;20019;-89
2023/06/01 01:03:08;;;;;;;16.42;8.02;;;10.00;99.90;;;;;;6279055;22;20038;-89
2023/06/01 01:05:36;;;;;;;17.98;7.57;;;10.00;99.90;;;;;;6279080;22;20041;-88
2023/06/01 01:08:02;;;;;;;15.05;7.80;;;10.00;99.90;;;;;;6306752;22;20078;-88
2023/06/01 01:11:01;;;;;;;12.27;7.25;;;10.00;99.90;;;;;;6280558;22;19995;-88
2023/06/01 01:13:36;;;;;;;15.60;8.05;;;10.00;99.90;;;;;;6279414;22;20086;-89
2023/06/01 01:16:27;;;;;;;14.15;8.15;;;10.00;99.90;;;;;;6279983;22;20010;-89
2023/06/01 01:19:00;;;;;;;17.60;8.88;;;10.00;99.90;;;;;;6280360;22;20099;-89
2023/06/01 01:21:35;;;;;;;14.10;8.18;;;10.00;99.90;;;;;;6280077;22;20007;-88
2023/06/01 01:24:31;;;;;;;17.48;8.13;;;10.00;99.90;;;;;;6281306;22;20010;-88
2023/06/01 01:27:09;;;;;;;13.52;8.05;;;10.00;99.90;;;;;;6281334;22;20091;-88
2023/06/01 01:29:37;;;;;;;15.10;7.85;;;10.00;99.90;;;;;;6280690;22;20035;-89
2023/06/01 01:32:05;;;;;;;16.35;8.15;;;10.00;99.90;;;;;;6280779;22;19999;-89
2023/06/01 01:34:32;;;;;;;17.98;8.27;;;10.00;99.90;;;;;;6280568;22;20030;-89
2023/06/01 01:36:58;;;;;;;18.45;8.15;;;10.00;99.90;;;;;;6280056;22;20000;-89
2023/06/01 01:39:24;;;;;;;16.13;7.95;;;10.00;99.90;;;;;;6280584;22;20018;-88
2023/06/01 01:41:49;;;;;;;16.10;8.00;;;10.00;99.90;;;;;;6280641;22;20000;-89
2023/06/01 01:44:16;;;;;;;15.38;8.18;;;10.00;99.90;;;;;;6279450;22;20094;-89
2023/06/01 01:47:12;;;;;;;14.55;8.65;;;9.90;99.90;;;;;;6279703;22;20026;-90
2023/06/01 01:49:52;;;;;;;13.68;7.55;;;9.90;99.90;;;;;;6280267;22;20057;-89
2023/06/01 01:52:25;;;;;;;16.73;7.85;;;9.90;99.90;;;;;;6279862;22;20031;-89
2023/06/01 01:54:51;;;;;;;18.05;8.57;;;9.90;99.90;;;;;;6280770;22;20094;-88
2023/06/01 01:57:18;;;;;;;12.77;7.43;;;9.80;99.90;;;;;;6280488;22;20002;-89
2023/06/01 01:59:46;;;;;;;17.15;8.05;;;9.90;99.90;;;;;;6279564;22;20050;-89
2023/06/01 02:02:12;;;;;;;18.63;8.23;;;9.90;99.90;;;;;;6280265;22;20385;-89
2023/06/01 02:04:42;;;;;;;13.98;6.97;;;9.90;99.90;;;;;;6281052;22;20007;-89
2023/06/01 02:07:08;;;;;;;16.73;7.93;;;9.90;99.90;;;;;;6283599;22;20004;-89
2023/06/01 02:09:34;;;;;;;14.85;7.80;;;9.90;99.90;;;;;;6284581;22;20003;-88
2023/06/01 02:12:00;;;;;;;16.23;8.25;;;9.90;99.90;;;;;;6283448;22;20004;-89
2023/06/01 02:14:25;;;;;;;13.60;7.05;;;9.90;99.90;;;;;;6284969;22;20003;-89
2023/06/01 02:16:53;;;;;;;18.48;8.30;;;9.80;99.90;;;;;;6286886;22;20117;-89
2023/06/01 02:19:19;;;;;;;13.77;7.00;;;9.80;99.90;;;;;;6283729;22;20011;-90
2023/06/01 02:21:45;;;;;;;15.75;7.93;;;9.70;99.90;;;;;;6281988;22;20004;-89
2023/06/01 02:24:11;;;;;;;14.85;7.50;;;9.70;99.90;;;;;;6281355;22;20090;-89
2023/06/01 02:26:36;;;;;;;20.80;8.45;;;9.70;99.90;;;;;;6281672;22;20042;-89
2023/06/01 02:29:04;;;;;;;15.85;8.55;;;9.70;99.90;;;;;;6281094;22;20007;-89
2023/06/01 02:31:36;;;;;;;14.55;8.35;;;9.60;99.90;;;;;;6281529;22;20137;-89
2023/06/01 02:34:02;;;;;;;15.23;7.13;;;9.70;99.90;;;;;;6281571;22;20346;-89
2023/06/01 02:36:31;;;;;;;17.95;8.10;;;9.70;99.90;;;;;;6281216;22;20003;-89
2023/06/01 02:38:58;;;;;;;15.23;8.40;;;9.70;99.90;;;;;;6280379;22;20465;-89
2023/06/01 02:41:24;;;;;;;17.27;8.55;;;9.70;99.90;;;;;;6281217;22;19999;-88
2023/06/01 02:43:50;;;;;;;18.38;8.68;;;9.60;99.90;;;;;;6281395;22;20011;-90
2023/06/01 02:46:17;;;;;;;16.20;8.30;;;9.70;99.90;;;;;;6281501;22;19999;-87
2023/06/01 02:48:43;;;;;;;16.40;8.32;;;9.70;99.90;;;;;;6281871;22;20014;-88
2023/06/01 02:51:09;;;;;;;16.50;8.00;;;9.60;99.90;;;;;;6281191;22;20034;-89
2023/06/01 02:53:35;;;;;;;17.30;8.63;;;9.60;99.90;;;;;;6280580;22;20391;-89
2023/06/01 02:56:00;;;;;;;16.27;8.45;;;9.60;99.90;;;;;;6281460;22;20003;-88
2023/06/01 02:58:29;;;;;;;17.35;10.02;;;9.60;99.90;;;;;;6280898;22;20019;-89
2023/06/01 03:00:57;;;;;;;16.95;8.90;;;9.60;99.90;;;;;;6307193;22;20041;-89
2023/06/01 03:03:23;;;;;;;22.20;10.40;;;9.60;99.90;;;;;;6279903;22;20003;-89
2023/06/01 03:05:49;;;;;;;18.80;9.25;;;9.60;99.90;;;;;;6280153;22;20007;-88
2023/06/01 03:08:16;;;;;;;16.23;9.30;;;9.60;99.90;;;;;;6280148;22;20003;-88
2023/06/01 03:10:42;;;;;;;17.08;9.82;;;9.60;99.90;;;;;;6280107;22;20007;-88
2023/06/01 03:13:08;;;;;;;20.38;10.82;;;9.60;99.90;;;;;;6279809;22;20090;-89
2023/06/01 03:15:33;;;;;;;19.15;8.77;;;9.60;99.90;;;;;;6280581;22;20046;-89
2023/06/01 03:18:00;;;;;;;19.23;9.95;;;9.60;99.90;;;;;;6279946;22;20495;-89
2023/06/01 03:20:27;;;;;;;17.52;9.95;;;9.60;99.90;;;;;;6280074;22;20441;-89
2023/06/01 03:22:52;;;;;;;16.67;9.75;;;9.60;99.90;;;;;;6280926;22;20320;-89
2023/06/01 03:25:18;;;;;;;18.17;9.50;;;9.60;99.90;;;;;;6280903;22;20050;-88
2023/06/01 03:27:44;;;;;;;16.25;9.98;;;9.60;99.90;;;;;;6280919;22;20042;-89
2023/06/01 03:30:10;;;;;;;22.30;9.40;;;9.60;99.90;;;;;;6281292;22;20003;-88
2023/06/01 03:32:43;;;;;;;18.42;9.60;;;9.60;99.90;;;;;;6280634;22;20007;-88
2023/06/01 03:35:11;;;;;;;16.65;9.90;;;9.60;99.90;;;;;;6280213;22;20056;-88
2023/06/01 03:37:38;;;;;;;17.35;9.63;;;9.60;99.90;;;;;;6280211;22;20010;-88
2023/06/01 03:40:12;;;;;;;18.77;9.40;;;9.60;99.90;;;;;;6280001;22;20026;-88
2023/06/01 03:42:37;;;;;;;17.67;9.00;;;9.60;99.90;;;;;;6280561;22;20435;-88
2023/06/01 03:45:04;;;;;;;15.57;8.65;;;9.70;99.90;;;;;;6280956;22;20030;-88
2023/06/01 03:47:30;;;;;;;13.48;8.85;;;9.70;99.90;;;;;;6281141;22;20082;-88
2023/06/01 03:49:57;;;;;;;16.73;9.43;;;9.60;99.90;;;;;;6280212;22;20041;-88
2023/06/01 03:52:25;;;;;;;17.83;9.20;;;9.70;99.90;;;;;;6280913;22;20003;-87
2023/06/01 03:54:51;;;;;;;17.15;9.02;;;9.70;99.90;;;;;;6280615;22;20076;-90
2023/06/01 03:57:17;;;;;;;18.10;9.10;;;9.70;99.90;;;;;;6280034;22;20007;-88
2023/06/01 03:59:42;;;;;;;17.80;8.85;;;9.70;99.90;;;;;;6280823;22;20018;-88
2023/06/01 04:02:09;;;;;;;17.50;8.85;;;9.70;99.90;;;;;;6280727;22;20052;-89
2023/06/01 04:04:35;;;;;;;18.25;8.63;;;9.70;99.90;;;;;;6280729;22;20065;-89
2023/06/01 04:07:03;;;;;;;18.52;8.93;;;9.70;99.90;;;;;;6280570;22;20003;-89
2023/06/01 04:09:29;;;;;;;19.15;10.05;;;9.70;99.90;;;;;;6307603;22;20057;-88
2023/06/01 04:11:55;;;;;;;18.48;10.18;;;9.70;99.90;;;;;;6280474;22;20057;-89
2023/06/01 04:14:21;;;;;;;18.65;8.95;;;9.70;99.90;;;;;;6280651;22;20007;-89
2023/06/01 04:16:47;;;;;;;22.15;9.15;;;9.70;99.90;;;;;;6280700;22;20003;-88
2023/06/01 04:19:12;;;;;;;22.05;10.35;;;9.70;99.90;;;;;;6279988;22;20007;-88
2023/06/01 04:21:38;;;;;;;20.88;9.15;;;9.70;99.90;;;;;;6280029;22;20093;-88
2023/06/01 04:24:04;;;;;;;18.63;8.80;;;9.70;99.90;;;;;;6279698;22;20009;-89
2023/06/01 04:26:31;;;;;;;19.45;8.13;;;9.60;99.90;;;;;;6280184;22;20007;-89
2023/06/01 04:28:58;;;;;;;18.25;8.80;;;9.60;99.90;;;;;;6280253;22;20007;-88
2023/06/01 04:31:24;;;;;;;17.25;9.07;;;9.60;99.90;;;;;;6280417;22;20086;-88
2023/06/01 04:33:53;;;;;;;21.25;9.32;;;9.60;99.90;;;;;;6279922;22;20031;-89
2023/06/01 04:36:22;;;;;;;19.17;8.80;;;9.60;99.90;;;;;;6279977;22;20074;-88
2023/06/01 04:38:54;;;;;;;16.95;8.57;;;9.70;99.90;;;;;;6279796;22;20064;-88
2023/06/01 04:41:23;;;;;;;18.15;9.50;;;9.70;99.90;;;;;;6279923;22;20021;-88
2023/06/01 04:43:51;;;;;;;14.48;8.45;;;9.70;99.90;;;;;;6279960;22;20007;-88
2023/06/01 04:46:23;;;;;;;17.13;8.65;;;9.70;99.90;;;;;;6279896;22;20050;-89
2023/06/01 04:48:51;;;;;;;24.88;10.15;;;9.70;99.90;;;;;;6280095;22;20006;-88
2023/06/01 04:51:20;;;;;;;18.58;8.43;;;9.70;99.90;;;;;;6279555;22;20022;-88
2023/06/01 04:53:49;;;;;;;22.77;9.35;;;9.70;99.90;;;;;;6279681;22;20026;-88
2023/06/01 04:56:17;;;;;;;17.38;9.45;;;9.80;99.90;;;;;;6280459;22;20003;-88
2023/06/01 04:58:44;;;;;;;18.65;8.82;;;9.80;99.90;;;;;;6281039;22;20011;-88
2023/06/01 05:01:13;;;;;;;17.05;8.48;;;9.80;99.90;;;;;;6280010;22;20488;-89
2023/06/01 05:03:39;;;;;;;16.33;8.48;;;9.80;99.90;;;;;;6280354;22;20058;-88
2023/06/01 05:06:05;;;;;;;15.77;8.93;;;9.80;99.90;;;;;;6280747;22;20011;-88
2023/06/01 05:08:31;;;;;;;17.80;8.38;;;9.80;99.90;;;;;;6281479;22;19999;-88
2023/06/01 05:10:56;;;;;;;17.13;8.85;;;9.80;99.90;;;;;;6281236;22;20086;-87
2023/06/01 05:13:22;;;;;;;23.88;9.95;;;9.80;99.90;;;;;;6282026;22;20013;-88
2023/06/01 05:15:47;;;;;;;23.08;9.30;;;9.80;99.90;;;;;;6282854;22;20003;-87
2023/06/01 05:18:13;;;;;;;19.10;9.30;;;9.80;99.90;;;;;;6282101;22;20007;-88
2023/06/01 05:20:39;;;;;;;19.92;9.45;;;9.80;99.90;;;;;;6280678;22;20296;-87
2023/06/01 05:23:05;;;;;;;16.60;9.60;;;9.80;99.90;;;;;;6279329;22;20021;-89
2023/06/01 05:25:31;;;;;;;18.45;9.55;;;9.80;99.90;;;;;;6279821;22;20056;-88
2023/06/01 05:27:56;;;;;;;18.25;9.48;;;9.80;99.90;;;;;;6280068;22;20378;-87
2023/06/01 05:30:22;;;;;;;17.10;8.23;;;9.90;99.90;;;;;;6279064;22;20019;-88
2023/06/01 05:32:47;;;;;;;18.15;9.20;;;9.90;99.90;;;;;;6279761;22;20094;-89
2023/06/01 05:35:13;;;;;;;18.98;9.35;;;9.90;99.90;;;;;;6279513;22;20007;-87
2023/06/01 05:37:39;;;;;;;21.85;9.38;;;9.90;99.90;;;;;;6279281;22;20518;-88
2023/06/01 05:40:07;;;;;;;16.63;9.40;;;10.00;99.90;;;;;;6280376;22;20020;-87
2023/06/01 05:42:33;;;;;;;19.70;9.02;;;10.00;99.90;;;;;;6281386;22;20281;-89
2023/06/01 05:44:59;;;;;;;20.98;9.40;;;10.00;99.90;;;;;;6282254;22;20010;-89
2023/06/01 05:47:24;;;;;;;18.08;9.95;;;10.00;99.90;;;;;;6282563;22;20000;-89
2023/06/01 05:49:50;;;;;;;18.15;9.73;;;10.00;99.90;;;;;;6281132;22;20007;-89
2023/06/01 05:52:16;;;;;;;17.95;9.48;;;10.00;99.90;;;;;;6281495;22;20053;-89
2023/06/01 05:54:42;;;;;;;18.55;8.98;;;10.00;99.90;;;;;;6282064;22;20019;-89
2023/06/01 05:57:08;;;;;;;22.00;10.38;;;10.00;99.90;;;;;;6308976;22;20427;-89
2023/06/01 05:59:33;;;;;;;17.98;8.93;;;10.10;99.90;;;;;;6281405;22;20396;-88
2023/06/01 06:01:59;;;;;;;18.27;9.70;;;10.10;99.90;;;;;;6281777;22;20003;-89
2023/06/01 06:04:25;;;;;;;20.98;9.40;;;10.10;99.90;;;;;;6281381;22;20007;-90
2023/06/01 06:06:51;;;;;;;19.52;9.55;;;10.10;99.90;;;;;;6281634;22;20049;-90
2023/06/01 06:09:17;;;;;;;17.50;10.40;;;10.20;99.90;;;;;;6281546;22;20350;-88
2023/06/01 06:11:43;;;;;;;18.63;9.38;;;10.20;99.90;;;;;;6281481;22;20130;-88
2023/06/01 06:14:11;;;;;;;21.05;11.20;;;10.20;99.90;;;;;;6282706;22;20056;-87
2023/06/01 06:16:37;;;;;;;17.00;10.13;;;10.20;99.90;;;;;;6281974;22;20010;-87
2023/06/01 06:19:02;;;;;;;20.20;9.18;;;10.20;99.90;;;;;;6281352;22;20011;-90
2023/06/01 06:21:30;;;;;;;19.65;10.45;;;10.20;99.90;;;;;;6280854;22;20014;-89
2023/06/01 06:23:58;;;;;;;22.02;10.25;;;10.20;99.90;;;;;;6281499;22;20015;-87
2023/06/01 06:26:26;;;;;;;24.52;10.77;;;10.30;99.90;;;;;;6282163;22;20283;-89
2023/06/01 06:28:52;;;;;;;18.17;11.02;;;10.40;99.90;;;;;;6280267;22;20011;-90
2023/06/01 06:31:17;;;;;;;18.98;10.05;;;10.40;99.90;;;;;;6281179;22;20082;-88
2023/06/01 06:33:43;;;;;;;17.58;10.40;;;10.40;99.90;;;;;;6281705;22;20446;-89
2023/06/01 06:36:09;;;;;;;22.13;11.15;;;10.50;99.90;;;;;;6280638;22;20427;-89
2023/06/01 06:38:35;;;;;;;16.55;9.23;;;10.50;99.90;;;;;;6282727;22;20003;-90
2023/06/01 06:41:00;;;;;;;17.10;9.45;;;10.60;99.90;;;;;;6282163;22;20046;-90
2023/06/01 06:43:26;;;;;;;15.02;8.45;;;10.60;99.90;;;;;;6282020;22;19999;-88
2023/06/01 06:45:52;;;;;;;18.40;9.05;;;10.70;99.90;;;;;;6283441;22;20011;-90
2023/06/01 06:48:17;;;;;;;18.52;8.85;;;10.70;99.90;;;;;;6282998;22;20490;-89
2023/06/01 06:50:44;;;;;;;12.95;7.22;;;10.70;99.90;;;;;;6283141;22;20400;-88
2023/06/01 06:53:11;;;;;;;13.93;8.70;;;10.70;99.90;;;;;;6283540;22;20007;-90
2023/06/01 06:55:36;;;;;;;15.85;8.40;;;10.80;99.90;;;;;;6288371;22;20136;-89
2023/06/01 06:58:02;;;;;;;14.85;7.40;;;10.80;99.90;;;;;;6287982;22;20007;-89
2023/06/01 07:00:28;;;;;;;17.17;7.57;;;10.80;99.90;;;;;;6290686;22;20064;-90
2023/06/01 07:02:55;;;;;;;16.25;8.50;;;10.90;99.90;;;;;;6288782;22;20006;-89
2023/06/01 07:05:21;;;;;;;13.88;7.50;;;10.90;99.90;;;;;;6288825;22;20465;-89
2023/06/01 07:07:46;;;;;;;13.25;8.00;;;10.90;99.90;;;;;;6285527;22;20003;-89
2023/06/01 07:10:12;;;;;;;12.68;8.25;;;10.90;99.90;;;;;;6284982;22;20438;-89
2023/06/01 07:12:38;;;;;;;12.65;7.93;;;10.90;99.90;;;;;;6284858;22;19999;-90
2023/06/01 07:15:05;;;;;;;15.45;8.40;;;10.90;99.90;;;;;;6284062;22;20007;-90
2023/06/01 07:17:31;;;;;;;13.60;8.18;;;11.00;99.90;;;;;;6282314;22;20006;-90
2023/06/01 07:19:56;;;;;;;17.25;8.13;;;11.00;99.90;;;;;;6281722;22;20443;-90
2023/06/01 07:22:22;;;;;;;10.73;6.97;;;11.10;99.90;;;;;;6280705;22;20468;-90
2023/06/01 07:24:48;;;;;;;13.27;7.07;;;11.10;99.90;;;;;;6281694;22;20458;-89
2023/06/01 07:27:14;;;;;;;14.20;7.00;;;11.10;99.90;;;;;;6307161;22;19999;-89
2023/06/01 07:29:41;;;;;;;9.90;6.72;;;11.20;99.90;;;;;;6307749;22;19999;-90
2023/06/01 07:32:06;;;;;;;12.80;7.03;;;11.30;99.90;;;;;;6281373;22;20003;-89
2023/06/01 07:34:35;;;;;;;12.25;6.95;;;11.30;99.90;;;;;;6279887;22;20011;-89
2023/06/01 07:37:01;;;;;;;15.63;8.13;;;11.40;99.90;;;;;;6281862;22;20003;-90
2023/06/01 07:39:26;;;;;;;15.18;7.95;;;11.40;99.90;;;;;;6279862;22;20022;-90
2023/06/01 07:41:55;;;;;;;14.48;8.45;;;11.50;99.90;;;;;;6276375;22;20086;-90
2023/06/01 07:44:24;;;;;;;15.23;8.45;;;11.50;99.90;;;;;;6280503;22;20012;-90
2023/06/01 07:46:49;;;;;;;15.93;9.13;;;11.70;99.90;;;;;;6308178;22;20166;-89
2023/06/01 07:49:15;;;;;;;17.65;9.15;;;11.70;99.90;;;;;;6280698;22;20003;-90
2023/06/01 07:51:42;;;;;;;14.88;8.45;;;11.80;99.90;;;;;;6280341;22;20000;-89
2023/06/01 07:54:09;;;;;;;12.30;7.32;;;11.80;99.90;;;;;;6279075;22;20070;-89
2023/06/01 07:56:35;;;;;;;11.13;6.10;;;11.90;99.90;;;;;;6280798;22;20007;-89
2023/06/01 07:59:01;;;;;;;10.52;6.68;;;12.00;99.90;;;;;;6280880;22;20048;-89
2023/06/01 08:01:27;;;;;;;10.77;5.88;;;12.00;99.90;;;;;;6280157;22;20086;-90
2023/06/01 08:03:52;;;;;;;9.88;5.68;;;12.10;99.90;;;;;;6280091;22;20011;-90
2023/06/01 08:06:22;;;;;;;11.88;6.00;;;12.10;99.90;;;;;;6280454;22;20033;-89
2023/06/01 08:08:49;;;;;;;10.65;5.63;;;12.10;99.90;;;;;;6280644;22;19995;-91
2023/06/01 08:11:16;;;;;;;11.60;5.43;;;12.20;99.90;;;;;;6280888;22;20011;-89
2023/06/01 08:13:45;;;;;;;11.90;5.13;;;12.30;99.90;;;;;;6280650;22;20005;-90
2023/06/01 08:16:12;;;;;;;12.48;6.00;;;12.30;99.90;;;;;;6280692;22;20003;-89
2023/06/01 08:18:38;;;;;;;11.05;5.22;;;12.40;99.90;;;;;;6280978;22;20089;-90
2023/06/01 08:21:08;;;;;;;9.38;4.88;;;12.50;99.90;;;;;;6280076;22;20034;-89
2023/06/01 08:23:35;;;;;;;9.90;5.55;;;12.50;99.90;;;;;;6279344;22;20003;-89
2023/06/01 08:26:01;;;;;;;9.77;5.38;;;12.50;99.90;;;;;;6280746;22;20007;-90
2023/06/01 08:28:27;;;;;;;9.45;5.13;;;12.50;99.90;;;;;;6281128;22;20145;-90
2023/06/01 08:30:53;;;;;;;10.95;5.53;;;12.50;99.90;;;;;;6280293;22;20047;-89
2023/06/01 08:33:19;;;;;;;12.32;5.47;;;12.60;99.90;;;;;;6280246;22;20090;-89
2023/06/01 08:35:44;;;;;;;8.90;5.20;;;12.70;99.90;;;;;;6279449;22;20062;-87
2023/06/01 08:38:12;;;;;;;9.18;5.25;;;12.70;99.90;;;;;;6279427;22;20308;-89
2023/06/01 08:40:40;;;;;;;8.63;4.65;;;12.80;99.90;;;;;;6279604;22;20532;-89
2023/06/01 08:43:17;;;;;;;9.43;5.28;;;12.90;99.90;;;;;;6279618;22;20007;-89
2023/06/01 08:45:43;;;;;;;9.70;4.85;;;13.00;99.90;;;;;;6280917;22;20007;-89
2023/06/01 08:48:16;;;;;;;11.13;5.63;;;13.10;99.90;;;;;;6279608;22;20022;-88
2023/06/01 08:50:44;;;;;;;10.73;5.65;;;13.10;99.90;;;;;;6279798;22;20007;-89
2023/06/01 08:53:10;;;;;;;9.20;5.25;;;13.20;99.90;;;;;;6280651;22;20572;-89
2023/06/01 08:55:36;;;;;;;11.32;5.50;;;13.10;99.90;;;;;;6280917;22;19999;-89
2023/06/01 08:58:03;;;;;;;11.45;5.97;;;13.10;99.90;;;;;;6283112;22;20037;-90
2023/06/01 09:00:32;;;;;;;8.63;5.57;;;13.20;99.90;;;;;;6282067;22;20496;-89
2023/06/01 09:03:01;;;;;;;11.27;5.70;;;13.20;99.90;;;;;;6279683;22;20003;-90
2023/06/01 09:05:27;;;;;;;8.75;5.53;;;13.20;99.90;;;;;;6280140;22;20030;-90
2023/06/01 09:07:54;;;;;;;9.60;5.57;;;13.20;99.90;;;;;;6282128;22;20007;-90
2023/06/01 09:10:25;;;;;;;8.15;5.18;;;13.20;99.90;;;;;;6311085;22;20007;-89
2023/06/01 09:12:55;;;;;;;8.95;5.30;;;13.20;99.90;;;;;;6284680;22;19999;-89
2023/06/01 09:15:22;;;;;;;11.52;5.25;;;13.20;99.90;;;;;;6281283;22;20027;-89
2023/06/01 09:17:50;;;;;;;10.82;5.80;;;13.30;99.90;;;;;;6282098;22;20006;-90
2023/06/01 09:20:26;;;;;;;10.02;5.82;;;13.30;99.90;;;;;;6280573;22;20015;-89
2023/06/01 09:22:53;;;;;;;10.38;5.47;;;13.30;99.90;;;;;;6279718;22;20022;-88
2023/06/01 09:25:28;;;;;;;7.90;5.22;;;13.40;99.90;;;;;;6280237;22;20011;-89
2023/06/01 09:27:55;;;;;;;8.90;5.28;;;13.50;99.90;;;;;;6280288;22;20003;-90
2023/06/01 09:30:25;;;;;;;12.80;5.80;;;13.50;99.90;;;;;;6281469;22;20007;-91
2023/06/01 09:33:12;;;;;;;9.35;5.70;;;13.50;99.90;;;;;;6280968;22;19995;-90
2023/06/01 09:35:44;;;;;;;6.75;4.53;;;13.60;99.90;;;;;;6282613;22;20003;-90
2023/06/01 09:38:10;;;;;;;10.73;5.70;;;13.70;99.90;;;;;;6280859;22;19999;-90
2023/06/01 09:40:38;;;;;;;9.85;5.30;;;13.80;99.90;;;;;;6280221;22;20011;-89
2023/06/01 09:43:23;;;;;;;12.68;5.68;;;13.90;99.90;;;;;;6280010;22;20003;-91
2023/06/01 09:46:09;;;;;;;9.02;4.72;;;14.00;99.90;;;;;;6280683;22;20094;-90
2023/06/01 09:48:36;;;;;;;9.93;5.20;;;14.00;99.90;;;;;;6280422;22;20048;-91
2023/06/01 09:51:02;;;;;;;9.05;5.15;;;14.20;99.90;;;;;;6280384;22;20158;-90
2023/06/01 09:53:28;;;;;;;8.73;4.22;;;14.30;99.90;;;;;;6277621;22;20084;-91
2023/06/01 09:56:00;;;;;;;9.23;5.15;;;14.40;99.90;;;;;;6275288;22;20000;-89
2023/06/01 09:58:27;;;;;;;11.02;4.60;;;14.50;99.90;;;;;;6274399;22;20014;-89
2023/06/01 10:00:53;;;;;;;9.48;5.13;;;14.50;99.90;;;;;;6274241;22;20447;-89
2023/06/01 10:03:21;;;;;;;9.90;4.93;;;14.80;99.90;;;;;;6275678;22;20442;-90
2023/06/01 10:05:48;;;;;;;9.52;4.80;;;14.90;99.90;;;;;;6274978;22;20008;-88
2023/06/01 14:35:01;;;;;;;3.08;2.65;;;15.60;99.90;;;;;;6210688;22;20043;-96
2023/06/01 15:08:07;;;;;;;2.75;1.90;;;15.70;99.90;;;;;;6244990;22;20015;-96
2023/06/01 15:10:33;;;;;;;6.45;1.95;;;15.70;99.90;;;;;;6273041;22;20106;-96
2023/06/01 15:13:01;;;;;;;3.50;1.83;;;15.70;99.90;;;;;;6272250;22;20055;-95
2023/06/01 15:15:27;;;;;;;4.68;2.00;;;15.70;99.90;;;;;;6267998;22;20004;-96
2023/06/01 15:17:54;;;;;;;5.82;2.20;;;15.80;99.90;;;;;;6293032;22;20057;-95
2023/06/01 15:20:20;;;;;;;6.15;2.25;;;15.80;99.90;;;;;;6298503;22;20000;-94
2023/06/01 15:22:46;;;;;;;4.72;1.90;;;15.90;99.90;;;;;;6300128;22;20007;-95
2023/06/01 15:45:45;;;;;;;6.32;2.70;;;16.10;99.90;;;;;;6265442;22;20043;-95
2023/06/01 15:48:11;;;;;;;5.85;3.05;;;16.10;99.90;;;;;;6242315;23;20020;-95
2023/06/01 16:07:47;;;;;;;4.93;2.63;;;16.30;97.40;;;;;;6216740;22;20027;-95
2023/06/01 16:10:15;;;;;;;7.00;2.75;;;16.30;97.10;;;;;;6277047;22;20034;-96
2023/06/01 16:12:44;;;;;;;6.53;4.07;;;16.20;96.80;;;;;;6298062;22;20026;-94
2023/06/01 16:15:10;;;;;;;6.78;3.15;;;16.10;96.90;;;;;;6281932;22;20016;-95
2023/06/01 16:17:38;;;;;;;6.90;2.90;;;16.00;96.90;;;;;;6262837;22;20034;-94
2023/06/01 16:20:06;;;;;;;8.95;3.05;;;16.00;97.10;;;;;;6278084;22;20012;-96
2023/06/01 16:22:33;;;;;;;7.97;3.38;;;15.80;97.10;;;;;;6274512;22;20027;-94
2023/06/01 16:25:00;;;;;;;5.45;2.80;;;15.80;97.30;;;;;;6248273;22;19996;-94
2023/06/01 16:30:01;;;;;;;8.13;2.75;;;15.60;97.20;;;;;;6285431;22;20312;-94
2023/06/01 16:32:29;;;;;;;9.75;2.72;;;15.60;97.40;;;;;;6301514;22;19992;-95
2023/06/01 16:34:56;;;;;;;9.50;3.00;;;15.60;97.30;;;;;;6301307;22;19992;-95
2023/06/01 16:37:28;;;;;;;13.98;3.13;;;15.60;97.20;;;;;;6303668;22;19991;-95
2023/06/01 16:39:54;;;;;;;12.30;3.20;;;15.50;97.20;;;;;;6291551;22;20010;-95
2023/06/01 16:42:22;;;;;;;8.75;4.03;;;15.50;97.20;;;;;;6305215;22;20003;-95
2023/06/01 16:44:48;;;;;;;7.72;3.13;;;15.50;97.50;;;;;;6332993;22;20072;-96
2023/06/01 16:47:15;;;;;;;8.68;3.17;;;15.40;97.10;;;;;;6306538;22;20385;-96
2023/06/01 16:49:47;;;;;;;9.48;2.85;;;15.40;97.10;;;;;;6308029;22;20019;-96
2023/06/01 16:52:15;;;;;;;8.77;3.38;;;15.40;97.10;;;;;;6301112;22;20027;-96
2023/06/01 16:54:44;;;;;;;13.23;3.28;;;15.30;97.00;;;;;;6271932;22;20007;-95
2023/06/01 16:57:10;;;;;;;10.73;2.90;;;15.30;97.00;;;;;;6298879;22;20000;-96
2023/06/01 16:59:39;;;;;;;10.85;2.80;;;15.20;97.10;;;;;;6296886;22;20016;-95
2023/06/01 17:02:14;;;;;;;10.18;3.20;;;15.10;97.10;;;;;;6272222;22;20004;-96
2023/06/01 17:04:39;;;;;;;12.32;3.10;;;15.10;97.20;;;;;;6271216;22;20039;-95
2023/06/01 17:07:08;;;;;;;10.75;2.80;;;15.00;97.50;;;;;;6273441;22;20018;-95
2023/06/01 17:09:50;;;;;;;10.73;2.95;;;14.90;97.80;;;;;;6266452;22;20034;-95
2023/06/01 17:12:19;;;;;;;11.93;2.85;;;14.90;97.70;;;;;;6269630;22;20010;-96
2023/06/01 17:14:51;;;;;;;12.30;3.42;;;14.90;97.70;;;;;;6270548;22;20015;-95
2023/06/01 17:19:55;;;;;;;13.35;2.63;;;14.70;97.70;;;;;;6250942;22;20024;-95
2023/06/01 17:22:21;;;;;;;8.77;3.10;;;14.60;97.80;;;;;;6290884;22;19996;-96
2023/06/01 17:24:47;;;;;;;11.65;3.78;;;14.50;97.80;;;;;;6289859;22;20095;-95
2023/06/01 17:27:13;;;;;;;12.07;3.20;;;14.40;98.00;;;;;;6264504;22;20415;-96
2023/06/01 17:29:38;;;;;;;9.77;2.85;;;14.40;98.10;;;;;;6288441;22;20019;-95
2023/06/01 17:32:05;;;;;;;7.88;3.20;;;14.30;98.20;;;;;;6280198;22;20007;-96
2023/06/01 17:34:30;;;;;;;10.15;3.08;;;14.30;98.40;;;;;;6285695;22;20069;-96
2023/06/01 17:36:59;;;;;;;9.23;3.67;;;14.30;98.60;;;;;;6290711;22;20003;-96
2023/06/01 17:39:25;;;;;;;9.82;3.42;;;14.30;98.70;;;;;;6291545;22;20012;-96
2023/06/01 17:41:52;;;;;;;16.08;3.17;;;14.30;98.70;;;;;;6296728;22;19987;-95
2023/06/01 17:44:22;;;;;;;21.30;3.60;;;14.30;98.80;;;;;;6295031;22;20056;-96
2023/06/01 17:46:48;;;;;;;12.73;3.80;;;14.30;98.80;;;;;;6283556;22;20020;-95
2023/06/01 17:49:14;;;;;;;10.48;3.58;;;14.30;98.80;;;;;;6296687;22;20227;-95
2023/06/01 17:51:41;;;;;;;6.88;3.42;;;14.20;99.00;;;;;;6297328;22;20000;-95
2023/06/01 17:54:08;;;;;;;11.63;3.25;;;14.20;99.10;;;;;;6298388;22;20004;-96
2023/06/01 17:56:34;;;;;;;11.70;2.85;;;14.10;99.20;;;;;;6300811;22;20019;-96
2023/06/01 17:59:03;;;;;;;14.10;2.95;;;14.00;99.40;;;;;;6304305;22;20008;-96
2023/06/01 18:01:31;;;;;;;11.07;2.75;;;14.00;99.60;;;;;;6300950;22;20007;-96
2023/06/01 18:04:00;;;;;;;11.48;3.45;;;14.00;99.80;;;;;;6221535;22;20108;-96
2023/06/01 18:06:28;;;;;;;11.10;3.05;;;13.90;99.80;;;;;;6306969;22;20000;-96
2023/06/01 18:08:57;;;;;;;9.32;3.08;;;13.90;99.90;;;;;;6305426;22;20071;-96
2023/06/01 18:11:22;;;;;;;7.57;2.67;;;13.90;99.90;;;;;;6306423;22;20004;-95
2023/06/01 18:16:28;;;;;;;7.93;3.50;;;13.80;99.90;;;;;;6137420;23;19904;31
2023/06/01 18:18:54;;;;;;;9.65;3.90;;;13.70;99.90;;;;;;6181835;22;20130;-96
2023/06/01 18:29:07;;;;;;;10.85;3.47;;;13.40;99.90;;;;;;6242647;22;20023;-96
2023/06/01 18:51:43;;;;;;;15.90;3.80;;;13.20;99.90;;;;;;6299789;22;20026;-95
2023/06/01 18:54:10;;;;;;;10.32;3.25;;;13.20;99.90;;;;;;6305770;22;20007;-95